sensor_id;sensor_type;location;lat;lon;timestamp;P1;durP1;ratioP1;P2;durP2;ratioP2
66667;SDS011;57205;51.438;-2.006;2022-09-03T00:02:24;9.55;;;6.57;;
66667;SDS011;57205;51.438;-2.006;2022-09-03T00:13:39;9.98;;;7.20;;
66667;SDS011;57205;51.438;-2.006;2022-09-03T00:16:10;8.88;;;7.13;;
66667;SDS011;57205;51.438;-2.006;2022-09-03T00:18:42;12.10;;;8.45;;
66667;SDS011;57205;51.438;-2.006;2022-09-03T00:21:11;8.80;;;7.88;;
66667;SDS011;57205;51.438;-2.006;2022-09-03T00:23:41;13.15;;;7.97;;
66667;SDS011;57205;51.438;-2.006;2022-09-03T00:28:50;11.50;;;8.18;;
66667;SDS011;57205;51.438;-2.006;2022-09-03T00:31:45;13.15;;;7.90;;
66667;SDS011;57205;51.438;-2.006;2022-09-03T00:34:33;10.65;;;8.20;;
66667;SDS011;57205;51.438;-2.006;2022-09-03T00:37:03;13.48;;;8.30;;
66667;SDS011;57205;51.438;-2.006;2022-09-03T00:39:29;9.80;;;8.25;;
66667;SDS011;57205;51.438;-2.006;2022-09-03T00:47:29;13.45;;;8.85;;
66667;SDS011;57205;51.438;-2.006;2022-09-03T00:50:08;12.15;;;8.68;;
66667;SDS011;57205;51.438;-2.006;2022-09-03T01:00:51;11.57;;;8.82;;
66667;SDS011;57205;51.438;-2.006;2022-09-03T01:25:23;10.23;;;8.85;;
66667;SDS011;57205;51.438;-2.006;2022-09-03T01:31:04;11.10;;;8.45;;
66667;SDS011;57205;51.438;-2.006;2022-09-03T01:33:46;8.98;;;7.75;;
66667;SDS011;57205;51.438;-2.006;2022-09-03T01:36:29;10.55;;;8.75;;
66667;SDS011;57205;51.438;-2.006;2022-09-03T01:39:02;9.60;;;7.72;;
66667;SDS011;57205;51.438;-2.006;2022-09-03T01:41:38;10.57;;;8.00;;
66667;SDS011;57205;51.438;-2.006;2022-09-03T01:47:27;9.18;;;7.50;;
66667;SDS011;57205;51.438;-2.006;2022-09-03T01:50:14;11.77;;;7.93;;
66667;SDS011;57205;51.438;-2.006;2022-09-03T01:53:06;10.20;;;8.50;;
66667;SDS011;57205;51.438;-2.006;2022-09-03T01:55:43;11.63;;;7.82;;
66667;SDS011;57205;51.438;-2.006;2022-09-03T01:58:35;15.07;;;8.30;;
66667;SDS011;57205;51.438;-2.006;2022-09-03T02:01:10;12.20;;;9.15;;
66667;SDS011;57205;51.438;-2.006;2022-09-03T02:03:47;15.40;;;9.82;;
66667;SDS011;57205;51.438;-2.006;2022-09-03T02:06:14;13.88;;;9.85;;
66667;SDS011;57205;51.438;-2.006;2022-09-03T02:08:42;13.93;;;9.43;;
66667;SDS011;57205;51.438;-2.006;2022-09-03T02:11:08;12.88;;;9.73;;
66667;SDS011;57205;51.438;-2.006;2022-09-03T02:13:38;12.65;;;9.98;;
66667;SDS011;57205;51.438;-2.006;2022-09-03T02:16:23;15.10;;;9.95;;
66667;SDS011;57205;51.438;-2.006;2022-09-03T02:18:56;13.15;;;9.82;;
66667;SDS011;57205;51.438;-2.006;2022-09-03T02:21:26;14.32;;;11.00;;
66667;SDS011;57205;51.438;-2.006;2022-09-03T02:23:56;14.43;;;10.30;;
66667;SDS011;57205;51.438;-2.006;2022-09-03T02:26:22;15.23;;;9.70;;
66667;SDS011;57205;51.438;-2.006;2022-09-03T02:28:49;13.70;;;10.85;;
66667;SDS011;57205;51.438;-2.006;2022-09-03T02:31:17;15.02;;;10.35;;
66667;SDS011;57205;51.438;-2.006;2022-09-03T02:33:45;13.20;;;9.32;;
66667;SDS011;57205;51.438;-2.006;2022-09-03T02:36:13;11.57;;;9.10;;
66667;SDS011;57205;51.438;-2.006;2022-09-03T02:38:41;11.85;;;8.50;;
66667;SDS011;57205;51.438;-2.006;2022-09-03T02:41:08;12.55;;;9.13;;
66667;SDS011;57205;51.438;-2.006;2022-09-03T02:46:08;13.18;;;9.63;;
66667;SDS011;57205;51.438;-2.006;2022-09-03T02:48:38;12.05;;;9.80;;
66667;SDS011;57205;51.438;-2.006;2022-09-03T02:51:03;13.60;;;9.88;;
66667;SDS011;57205;51.438;-2.006;2022-09-03T02:53:29;11.18;;;8.65;;
66667;SDS011;57205;51.438;-2.006;2022-09-03T02:55:58;11.98;;;8.40;;
66667;SDS011;57205;51.438;-2.006;2022-09-03T02:58:24;15.15;;;10.40;;
66667;SDS011;57205;51.438;-2.006;2022-09-03T03:00:50;13.57;;;10.70;;
66667;SDS011;57205;51.438;-2.006;2022-09-03T03:03:16;15.07;;;12.50;;
66667;SDS011;57205;51.438;-2.006;2022-09-03T03:08:10;17.25;;;12.40;;
66667;SDS011;57205;51.438;-2.006;2022-09-03T03:10:39;17.58;;;12.77;;
66667;SDS011;57205;51.438;-2.006;2022-09-03T03:13:11;16.98;;;12.95;;
66667;SDS011;57205;51.438;-2.006;2022-09-03T03:15:37;18.10;;;12.50;;
66667;SDS011;57205;51.438;-2.006;2022-09-03T03:18:03;14.65;;;11.13;;
66667;SDS011;57205;51.438;-2.006;2022-09-03T03:20:28;14.10;;;9.57;;
66667;SDS011;57205;51.438;-2.006;2022-09-03T03:22:54;12.48;;;9.63;;
66667;SDS011;57205;51.438;-2.006;2022-09-03T03:25:19;12.50;;;9.02;;
66667;SDS011;57205;51.438;-2.006;2022-09-03T03:27:45;11.00;;;8.75;;
66667;SDS011;57205;51.438;-2.006;2022-09-03T03:30:11;11.73;;;9.25;;
66667;SDS011;57205;51.438;-2.006;2022-09-03T03:32:36;17.77;;;10.27;;
66667;SDS011;57205;51.438;-2.006;2022-09-03T03:35:03;13.27;;;9.93;;
66667;SDS011;57205;51.438;-2.006;2022-09-03T03:37:30;14.90;;;10.77;;
66667;SDS011;57205;51.438;-2.006;2022-09-03T03:39:56;14.93;;;10.55;;
66667;SDS011;57205;51.438;-2.006;2022-09-03T03:42:21;14.48;;;11.00;;
66667;SDS011;57205;51.438;-2.006;2022-09-03T03:44:47;12.80;;;10.55;;
66667;SDS011;57205;51.438;-2.006;2022-09-03T03:47:12;13.57;;;11.10;;
66667;SDS011;57205;51.438;-2.006;2022-09-03T03:49:41;15.73;;;11.50;;
66667;SDS011;57205;51.438;-2.006;2022-09-03T03:52:08;14.48;;;11.25;;
66667;SDS011;57205;51.438;-2.006;2022-09-03T03:54:33;15.15;;;11.98;;
66667;SDS011;57205;51.438;-2.006;2022-09-03T03:56:59;16.10;;;11.73;;
66667;SDS011;57205;51.438;-2.006;2022-09-03T03:59:24;14.75;;;11.85;;
66667;SDS011;57205;51.438;-2.006;2022-09-03T04:01:50;17.08;;;12.25;;
66667;SDS011;57205;51.438;-2.006;2022-09-03T04:04:19;18.65;;;11.75;;
66667;SDS011;57205;51.438;-2.006;2022-09-03T04:06:44;14.77;;;11.18;;
66667;SDS011;57205;51.438;-2.006;2022-09-03T04:09:10;14.95;;;11.18;;
66667;SDS011;57205;51.438;-2.006;2022-09-03T04:11:35;16.85;;;11.88;;
66667;SDS011;57205;51.438;-2.006;2022-09-03T04:14:01;16.30;;;12.05;;
66667;SDS011;57205;51.438;-2.006;2022-09-03T04:16:27;17.70;;;12.70;;
66667;SDS011;57205;51.438;-2.006;2022-09-03T04:18:53;18.30;;;12.82;;
66667;SDS011;57205;51.438;-2.006;2022-09-03T04:21:21;16.13;;;12.38;;
66667;SDS011;57205;51.438;-2.006;2022-09-03T04:23:53;17.35;;;13.13;;
66667;SDS011;57205;51.438;-2.006;2022-09-03T04:26:29;17.17;;;13.85;;
66667;SDS011;57205;51.438;-2.006;2022-09-03T04:28:55;18.35;;;12.82;;
66667;SDS011;57205;51.438;-2.006;2022-09-03T04:31:22;21.27;;;12.70;;
66667;SDS011;57205;51.438;-2.006;2022-09-03T04:33:48;15.45;;;12.75;;
66667;SDS011;57205;51.438;-2.006;2022-09-03T04:36:14;15.93;;;13.02;;
66667;SDS011;57205;51.438;-2.006;2022-09-03T04:38:42;16.00;;;12.45;;
66667;SDS011;57205;51.438;-2.006;2022-09-03T04:41:10;22.27;;;14.00;;
66667;SDS011;57205;51.438;-2.006;2022-09-03T04:43:38;21.45;;;13.20;;
66667;SDS011;57205;51.438;-2.006;2022-09-03T04:46:08;22.02;;;15.40;;
66667;SDS011;57205;51.438;-2.006;2022-09-03T04:48:36;21.65;;;15.05;;
66667;SDS011;57205;51.438;-2.006;2022-09-03T04:51:09;20.33;;;14.75;;
66667;SDS011;57205;51.438;-2.006;2022-09-03T04:53:41;19.27;;;14.43;;
66667;SDS011;57205;51.438;-2.006;2022-09-03T04:56:14;22.25;;;17.30;;
66667;SDS011;57205;51.438;-2.006;2022-09-03T04:58:41;21.27;;;15.43;;
66667;SDS011;57205;51.438;-2.006;2022-09-03T05:01:12;21.48;;;16.33;;
66667;SDS011;57205;51.438;-2.006;2022-09-03T05:03:41;20.90;;;16.02;;
66667;SDS011;57205;51.438;-2.006;2022-09-03T05:06:06;21.55;;;16.98;;
66667;SDS011;57205;51.438;-2.006;2022-09-03T05:08:33;22.42;;;16.90;;
66667;SDS011;57205;51.438;-2.006;2022-09-03T05:11:00;21.00;;;16.10;;
66667;SDS011;57205;51.438;-2.006;2022-09-03T05:13:30;21.00;;;17.17;;
66667;SDS011;57205;51.438;-2.006;2022-09-03T05:15:58;21.70;;;16.75;;
66667;SDS011;57205;51.438;-2.006;2022-09-03T05:18:27;20.50;;;16.05;;
66667;SDS011;57205;51.438;-2.006;2022-09-03T05:20:57;20.77;;;16.38;;
66667;SDS011;57205;51.438;-2.006;2022-09-03T05:23:27;23.08;;;15.45;;
66667;SDS011;57205;51.438;-2.006;2022-09-03T05:25:57;21.95;;;16.30;;
66667;SDS011;57205;51.438;-2.006;2022-09-03T05:28:25;22.58;;;16.05;;
66667;SDS011;57205;51.438;-2.006;2022-09-03T05:30:59;22.63;;;15.70;;
66667;SDS011;57205;51.438;-2.006;2022-09-03T05:33:25;23.75;;;15.07;;
66667;SDS011;57205;51.438;-2.006;2022-09-03T05:35:52;23.48;;;15.05;;
66667;SDS011;57205;51.438;-2.006;2022-09-03T05:38:18;27.50;;;15.90;;
66667;SDS011;57205;51.438;-2.006;2022-09-03T05:40:43;24.42;;;15.35;;
66667;SDS011;57205;51.438;-2.006;2022-09-03T05:43:09;20.17;;;13.82;;
66667;SDS011;57205;51.438;-2.006;2022-09-03T05:45:35;25.42;;;13.30;;
66667;SDS011;57205;51.438;-2.006;2022-09-03T05:48:01;24.55;;;13.32;;
66667;SDS011;57205;51.438;-2.006;2022-09-03T05:50:26;23.42;;;13.23;;
66667;SDS011;57205;51.438;-2.006;2022-09-03T05:52:52;22.60;;;13.45;;
66667;SDS011;57205;51.438;-2.006;2022-09-03T05:55:18;19.48;;;12.35;;
66667;SDS011;57205;51.438;-2.006;2022-09-03T05:57:44;20.92;;;12.07;;
66667;SDS011;57205;51.438;-2.006;2022-09-03T06:00:10;20.08;;;12.80;;
66667;SDS011;57205;51.438;-2.006;2022-09-03T06:02:36;20.08;;;13.15;;
66667;SDS011;57205;51.438;-2.006;2022-09-03T06:05:02;19.48;;;12.43;;
66667;SDS011;57205;51.438;-2.006;2022-09-03T06:07:27;17.75;;;10.90;;
66667;SDS011;57205;51.438;-2.006;2022-09-03T06:09:53;19.77;;;13.23;;
66667;SDS011;57205;51.438;-2.006;2022-09-03T06:12:18;21.92;;;13.23;;
66667;SDS011;57205;51.438;-2.006;2022-09-03T06:14:44;19.52;;;12.38;;
66667;SDS011;57205;51.438;-2.006;2022-09-03T06:17:10;20.77;;;12.55;;
66667;SDS011;57205;51.438;-2.006;2022-09-03T06:19:37;20.70;;;12.65;;
66667;SDS011;57205;51.438;-2.006;2022-09-03T06:22:03;18.02;;;11.63;;
66667;SDS011;57205;51.438;-2.006;2022-09-03T06:24:29;19.00;;;11.95;;
66667;SDS011;57205;51.438;-2.006;2022-09-03T06:26:55;18.30;;;11.95;;
66667;SDS011;57205;51.438;-2.006;2022-09-03T06:29:21;16.67;;;11.38;;
66667;SDS011;57205;51.438;-2.006;2022-09-03T06:31:46;16.95;;;10.93;;
66667;SDS011;57205;51.438;-2.006;2022-09-03T06:34:12;17.13;;;11.27;;
66667;SDS011;57205;51.438;-2.006;2022-09-03T06:36:38;16.98;;;11.15;;
66667;SDS011;57205;51.438;-2.006;2022-09-03T06:39:05;15.48;;;11.40;;
66667;SDS011;57205;51.438;-2.006;2022-09-03T06:41:31;21.67;;;10.10;;
66667;SDS011;57205;51.438;-2.006;2022-09-03T06:44:03;11.77;;;9.30;;
66667;SDS011;57205;51.438;-2.006;2022-09-03T06:46:31;12.35;;;8.82;;
66667;SDS011;57205;51.438;-2.006;2022-09-03T06:48:58;12.43;;;9.32;;
66667;SDS011;57205;51.438;-2.006;2022-09-03T06:51:25;11.68;;;8.48;;
66667;SDS011;57205;51.438;-2.006;2022-09-03T06:53:53;11.55;;;8.68;;
66667;SDS011;57205;51.438;-2.006;2022-09-03T06:56:23;13.85;;;9.98;;
66667;SDS011;57205;51.438;-2.006;2022-09-03T06:58:51;12.93;;;9.48;;
66667;SDS011;57205;51.438;-2.006;2022-09-03T07:01:19;12.85;;;9.85;;
66667;SDS011;57205;51.438;-2.006;2022-09-03T07:03:47;12.43;;;9.63;;
66667;SDS011;57205;51.438;-2.006;2022-09-03T07:08:45;13.45;;;9.90;;
66667;SDS011;57205;51.438;-2.006;2022-09-03T07:11:12;12.77;;;10.25;;
66667;SDS011;57205;51.438;-2.006;2022-09-03T07:13:41;13.65;;;10.00;;
66667;SDS011;57205;51.438;-2.006;2022-09-03T07:16:16;13.05;;;10.93;;
66667;SDS011;57205;51.438;-2.006;2022-09-03T07:18:45;14.07;;;11.13;;
66667;SDS011;57205;51.438;-2.006;2022-09-03T07:21:13;16.88;;;11.45;;
66667;SDS011;57205;51.438;-2.006;2022-09-03T07:23:40;15.95;;;12.70;;
66667;SDS011;57205;51.438;-2.006;2022-09-03T07:26:07;14.75;;;11.15;;
66667;SDS011;57205;51.438;-2.006;2022-09-03T07:28:44;15.75;;;12.20;;
66667;SDS011;57205;51.438;-2.006;2022-09-03T07:31:15;15.63;;;10.93;;
66667;SDS011;57205;51.438;-2.006;2022-09-03T07:33:44;13.82;;;10.80;;
66667;SDS011;57205;51.438;-2.006;2022-09-03T07:36:12;12.57;;;10.27;;
66667;SDS011;57205;51.438;-2.006;2022-09-03T07:38:39;16.63;;;11.30;;
66667;SDS011;57205;51.438;-2.006;2022-09-03T07:41:07;14.50;;;12.05;;
66667;SDS011;57205;51.438;-2.006;2022-09-03T07:43:34;14.57;;;11.68;;
66667;SDS011;57205;51.438;-2.006;2022-09-03T07:46:04;12.90;;;11.50;;
66667;SDS011;57205;51.438;-2.006;2022-09-03T07:48:31;14.38;;;12.40;;
66667;SDS011;57205;51.438;-2.006;2022-09-03T07:50:57;15.82;;;13.15;;
66667;SDS011;57205;51.438;-2.006;2022-09-03T07:53:27;14.65;;;11.77;;
66667;SDS011;57205;51.438;-2.006;2022-09-03T07:55:59;15.65;;;12.18;;
66667;SDS011;57205;51.438;-2.006;2022-09-03T07:58:27;15.50;;;12.18;;
66667;SDS011;57205;51.438;-2.006;2022-09-03T08:00:54;15.18;;;11.85;;
66667;SDS011;57205;51.438;-2.006;2022-09-03T08:03:21;14.80;;;11.60;;
66667;SDS011;57205;51.438;-2.006;2022-09-03T08:05:46;23.83;;;17.77;;
66667;SDS011;57205;51.438;-2.006;2022-09-03T08:08:12;17.58;;;14.23;;
66667;SDS011;57205;51.438;-2.006;2022-09-03T08:10:39;17.02;;;12.50;;
66667;SDS011;57205;51.438;-2.006;2022-09-03T08:13:05;17.83;;;12.25;;
66667;SDS011;57205;51.438;-2.006;2022-09-03T08:15:31;14.55;;;10.82;;
66667;SDS011;57205;51.438;-2.006;2022-09-03T08:17:58;14.90;;;11.80;;
66667;SDS011;57205;51.438;-2.006;2022-09-03T08:20:25;15.90;;;11.82;;
66667;SDS011;57205;51.438;-2.006;2022-09-03T08:22:52;12.57;;;9.38;;
66667;SDS011;57205;51.438;-2.006;2022-09-03T08:25:24;9.40;;;7.53;;
66667;SDS011;57205;51.438;-2.006;2022-09-03T08:27:50;8.38;;;6.53;;
66667;SDS011;57205;51.438;-2.006;2022-09-03T08:30:15;9.77;;;6.65;;
66667;SDS011;57205;51.438;-2.006;2022-09-03T08:32:41;8.68;;;5.88;;
66667;SDS011;57205;51.438;-2.006;2022-09-03T08:35:07;9.23;;;6.30;;
66667;SDS011;57205;51.438;-2.006;2022-09-03T08:37:33;9.75;;;6.85;;
66667;SDS011;57205;51.438;-2.006;2022-09-03T08:39:59;11.23;;;6.80;;
66667;SDS011;57205;51.438;-2.006;2022-09-03T08:45:04;11.25;;;8.63;;
66667;SDS011;57205;51.438;-2.006;2022-09-03T08:47:44;12.60;;;9.73;;
66667;SDS011;57205;51.438;-2.006;2022-09-03T08:50:40;11.57;;;8.77;;
66667;SDS011;57205;51.438;-2.006;2022-09-03T08:53:20;12.30;;;7.70;;
66667;SDS011;57205;51.438;-2.006;2022-09-03T08:56:02;7.32;;;6.20;;
66667;SDS011;57205;51.438;-2.006;2022-09-03T08:58:33;9.00;;;5.68;;
66667;SDS011;57205;51.438;-2.006;2022-09-03T09:07:21;10.43;;;5.50;;
66667;SDS011;57205;51.438;-2.006;2022-09-03T09:18:10;8.32;;;6.25;;
66667;SDS011;57205;51.438;-2.006;2022-09-03T09:20:51;8.85;;;6.15;;
66667;SDS011;57205;51.438;-2.006;2022-09-03T09:25:52;7.15;;;5.65;;
66667;SDS011;57205;51.438;-2.006;2022-09-03T09:28:28;8.65;;;5.25;;
66667;SDS011;57205;51.438;-2.006;2022-09-03T09:31:01;8.93;;;6.05;;
66667;SDS011;57205;51.438;-2.006;2022-09-03T09:33:28;8.85;;;5.93;;
66667;SDS011;57205;51.438;-2.006;2022-09-03T09:35:58;7.43;;;5.78;;
66667;SDS011;57205;51.438;-2.006;2022-09-03T09:38:34;8.00;;;5.75;;
66667;SDS011;57205;51.438;-2.006;2022-09-03T09:43:39;8.80;;;6.07;;
66667;SDS011;57205;51.438;-2.006;2022-09-03T09:46:07;7.53;;;5.97;;
66667;SDS011;57205;51.438;-2.006;2022-09-03T09:48:43;9.90;;;6.83;;
66667;SDS011;57205;51.438;-2.006;2022-09-03T09:51:19;9.93;;;7.20;;
66667;SDS011;57205;51.438;-2.006;2022-09-03T09:53:47;11.95;;;7.30;;
66667;SDS011;57205;51.438;-2.006;2022-09-03T09:56:26;9.40;;;7.57;;
66667;SDS011;57205;51.438;-2.006;2022-09-03T09:59:02;9.82;;;7.40;;
66667;SDS011;57205;51.438;-2.006;2022-09-03T10:01:29;9.68;;;7.70;;
66667;SDS011;57205;51.438;-2.006;2022-09-03T10:03:59;8.27;;;6.78;;
66667;SDS011;57205;51.438;-2.006;2022-09-03T10:06:35;10.13;;;6.65;;
66667;SDS011;57205;51.438;-2.006;2022-09-03T10:09:21;9.32;;;6.80;;
66667;SDS011;57205;51.438;-2.006;2022-09-03T10:11:49;10.90;;;7.78;;
66667;SDS011;57205;51.438;-2.006;2022-09-03T10:14:25;10.45;;;7.45;;
66667;SDS011;57205;51.438;-2.006;2022-09-03T10:25:22;10.75;;;7.65;;
66667;SDS011;57205;51.438;-2.006;2022-09-03T10:27:51;10.32;;;7.20;;
66667;SDS011;57205;51.438;-2.006;2022-09-03T10:30:20;10.32;;;7.22;;
66667;SDS011;57205;51.438;-2.006;2022-09-03T10:35:59;11.90;;;7.60;;
66667;SDS011;57205;51.438;-2.006;2022-09-03T10:38:36;13.65;;;7.53;;
66667;SDS011;57205;51.438;-2.006;2022-09-03T10:41:20;10.18;;;6.65;;
66667;SDS011;57205;51.438;-2.006;2022-09-03T10:46:40;10.20;;;7.50;;
66667;SDS011;57205;51.438;-2.006;2022-09-03T10:49:22;10.75;;;7.70;;
66667;SDS011;57205;51.438;-2.006;2022-09-03T10:52:07;9.07;;;6.28;;
66667;SDS011;57205;51.438;-2.006;2022-09-03T10:54:59;10.93;;;7.40;;
66667;SDS011;57205;51.438;-2.006;2022-09-03T11:00:23;9.15;;;6.57;;
66667;SDS011;57205;51.438;-2.006;2022-09-03T11:05:23;11.68;;;7.28;;
66667;SDS011;57205;51.438;-2.006;2022-09-03T11:08:13;8.07;;;6.10;;
66667;SDS011;57205;51.438;-2.006;2022-09-03T11:10:47;10.63;;;6.88;;
66667;SDS011;57205;51.438;-2.006;2022-09-03T11:13:35;8.90;;;6.40;;
66667;SDS011;57205;51.438;-2.006;2022-09-03T11:16:14;11.93;;;6.20;;
66667;SDS011;57205;51.438;-2.006;2022-09-03T11:18:48;9.00;;;6.55;;
66667;SDS011;57205;51.438;-2.006;2022-09-03T11:21:17;9.02;;;6.53;;
66667;SDS011;57205;51.438;-2.006;2022-09-03T11:23:47;9.63;;;6.20;;
66667;SDS011;57205;51.438;-2.006;2022-09-03T11:26:25;9.10;;;5.88;;
66667;SDS011;57205;51.438;-2.006;2022-09-03T11:36:52;8.10;;;6.35;;
66667;SDS011;57205;51.438;-2.006;2022-09-03T11:42:03;10.23;;;6.60;;
66667;SDS011;57205;51.438;-2.006;2022-09-03T11:44:37;9.57;;;6.57;;
66667;SDS011;57205;51.438;-2.006;2022-09-03T11:49:44;8.35;;;5.80;;
66667;SDS011;57205;51.438;-2.006;2022-09-03T11:52:23;7.30;;;5.32;;
66667;SDS011;57205;51.438;-2.006;2022-09-03T11:54:50;7.95;;;6.05;;
66667;SDS011;57205;51.438;-2.006;2022-09-03T11:57:20;8.10;;;5.18;;
66667;SDS011;57205;51.438;-2.006;2022-09-03T11:59:51;8.27;;;5.07;;
66667;SDS011;57205;51.438;-2.006;2022-09-03T12:02:30;11.10;;;6.32;;
66667;SDS011;57205;51.438;-2.006;2022-09-03T12:10:53;9.75;;;6.30;;
66667;SDS011;57205;51.438;-2.006;2022-09-03T12:19:02;7.50;;;6.03;;
66667;SDS011;57205;51.438;-2.006;2022-09-03T12:21:38;11.93;;;5.95;;
66667;SDS011;57205;51.438;-2.006;2022-09-03T12:24:05;8.98;;;5.93;;
66667;SDS011;57205;51.438;-2.006;2022-09-03T12:26:40;11.20;;;6.32;;
66667;SDS011;57205;51.438;-2.006;2022-09-03T12:29:18;9.23;;;6.68;;
66667;SDS011;57205;51.438;-2.006;2022-09-03T12:31:47;11.90;;;6.18;;
66667;SDS011;57205;51.438;-2.006;2022-09-03T12:34:19;8.60;;;6.88;;
66667;SDS011;57205;51.438;-2.006;2022-09-03T12:36:46;8.80;;;6.05;;
66667;SDS011;57205;51.438;-2.006;2022-09-03T12:39:14;7.57;;;5.75;;
66667;SDS011;57205;51.438;-2.006;2022-09-03T12:42:00;10.38;;;6.75;;
66667;SDS011;57205;51.438;-2.006;2022-09-03T12:44:32;9.98;;;6.28;;
66667;SDS011;57205;51.438;-2.006;2022-09-03T12:47:09;10.05;;;6.25;;
66667;SDS011;57205;51.438;-2.006;2022-09-03T12:49:39;8.55;;;5.72;;
66667;SDS011;57205;51.438;-2.006;2022-09-03T12:57:26;9.50;;;5.45;;
66667;SDS011;57205;51.438;-2.006;2022-09-03T12:59:59;8.20;;;5.78;;
66667;SDS011;57205;51.438;-2.006;2022-09-03T13:02:37;9.82;;;5.18;;
66667;SDS011;57205;51.438;-2.006;2022-09-03T13:05:10;7.85;;;5.47;;
66667;SDS011;57205;51.438;-2.006;2022-09-03T13:10:15;13.27;;;5.88;;
66667;SDS011;57205;51.438;-2.006;2022-09-03T13:12:58;10.27;;;7.07;;
66667;SDS011;57205;51.438;-2.006;2022-09-03T13:15:26;11.38;;;7.35;;
66667;SDS011;57205;51.438;-2.006;2022-09-03T13:20:29;14.43;;;8.02;;
66667;SDS011;57205;51.438;-2.006;2022-09-03T13:25:49;11.48;;;9.20;;
66667;SDS011;57205;51.438;-2.006;2022-09-03T13:37:10;12.55;;;8.63;;
66667;SDS011;57205;51.438;-2.006;2022-09-03T13:39:57;14.85;;;9.70;;
66667;SDS011;57205;51.438;-2.006;2022-09-03T13:42:35;23.02;;;11.63;;
66667;SDS011;57205;51.438;-2.006;2022-09-03T13:48:35;10.75;;;7.07;;
66667;SDS011;57205;51.438;-2.006;2022-09-03T13:51:27;12.90;;;6.22;;
66667;SDS011;57205;51.438;-2.006;2022-09-03T14:06:00;8.60;;;4.97;;
66667;SDS011;57205;51.438;-2.006;2022-09-03T14:11:11;7.53;;;4.47;;
66667;SDS011;57205;51.438;-2.006;2022-09-03T14:13:53;7.90;;;4.90;;
66667;SDS011;57205;51.438;-2.006;2022-09-03T14:22:14;7.63;;;4.75;;
66667;SDS011;57205;51.438;-2.006;2022-09-03T14:24:54;9.25;;;4.55;;
66667;SDS011;57205;51.438;-2.006;2022-09-03T14:27:29;8.38;;;4.32;;
66667;SDS011;57205;51.438;-2.006;2022-09-03T14:30:00;7.35;;;3.90;;
66667;SDS011;57205;51.438;-2.006;2022-09-03T14:41:05;5.93;;;3.78;;
66667;SDS011;57205;51.438;-2.006;2022-09-03T14:46:14;6.75;;;3.83;;
66667;SDS011;57205;51.438;-2.006;2022-09-03T15:02:42;7.60;;;4.00;;
66667;SDS011;57205;51.438;-2.006;2022-09-03T15:05:48;6.55;;;3.75;;
66667;SDS011;57205;51.438;-2.006;2022-09-03T15:08:57;6.45;;;3.22;;
66667;SDS011;57205;51.438;-2.006;2022-09-03T15:14:41;5.78;;;2.72;;
66667;SDS011;57205;51.438;-2.006;2022-09-03T15:20:15;5.40;;;2.60;;
66667;SDS011;57205;51.438;-2.006;2022-09-03T15:30:41;6.32;;;3.00;;
66667;SDS011;57205;51.438;-2.006;2022-09-03T15:33:17;4.90;;;2.22;;
66667;SDS011;57205;51.438;-2.006;2022-09-03T15:41:32;5.47;;;2.38;;
66667;SDS011;57205;51.438;-2.006;2022-09-03T15:43:59;8.70;;;2.55;;
66667;SDS011;57205;51.438;-2.006;2022-09-03T15:46:37;5.97;;;2.63;;
66667;SDS011;57205;51.438;-2.006;2022-09-03T15:49:06;8.40;;;2.90;;
66667;SDS011;57205;51.438;-2.006;2022-09-03T15:54:21;6.68;;;2.67;;
66667;SDS011;57205;51.438;-2.006;2022-09-03T15:57:11;6.38;;;3.10;;
66667;SDS011;57205;51.438;-2.006;2022-09-03T16:10:18;5.57;;;2.72;;
66667;SDS011;57205;51.438;-2.006;2022-09-03T16:15:39;7.28;;;2.38;;
66667;SDS011;57205;51.438;-2.006;2022-09-03T16:18:41;4.20;;;1.77;;
66667;SDS011;57205;51.438;-2.006;2022-09-03T16:24:47;7.00;;;1.83;;
66667;SDS011;57205;51.438;-2.006;2022-09-03T16:27:18;5.18;;;1.90;;
66667;SDS011;57205;51.438;-2.006;2022-09-03T16:29:54;5.30;;;1.85;;
66667;SDS011;57205;51.438;-2.006;2022-09-03T16:48:58;5.60;;;1.60;;
66667;SDS011;57205;51.438;-2.006;2022-09-03T16:56:47;3.28;;;1.45;;
66667;SDS011;57205;51.438;-2.006;2022-09-03T17:05:51;3.03;;;1.48;;
66667;SDS011;57205;51.438;-2.006;2022-09-03T17:08:43;3.20;;;1.20;;
66667;SDS011;57205;51.438;-2.006;2022-09-03T17:17:20;7.55;;;1.77;;
66667;SDS011;57205;51.438;-2.006;2022-09-03T17:22:39;6.80;;;2.38;;
66667;SDS011;57205;51.438;-2.006;2022-09-03T17:25:18;3.83;;;1.40;;
66667;SDS011;57205;51.438;-2.006;2022-09-03T17:33:14;3.72;;;1.60;;
66667;SDS011;57205;51.438;-2.006;2022-09-03T17:36:03;4.22;;;1.50;;
66667;SDS011;57205;51.438;-2.006;2022-09-03T17:47:18;3.17;;;1.42;;
66667;SDS011;57205;51.438;-2.006;2022-09-03T17:58:12;3.90;;;2.05;;
66667;SDS011;57205;51.438;-2.006;2022-09-03T18:00:50;4.05;;;1.63;;
66667;SDS011;57205;51.438;-2.006;2022-09-03T18:19:45;6.35;;;1.63;;
66667;SDS011;57205;51.438;-2.006;2022-09-03T18:22:51;3.83;;;1.52;;
66667;SDS011;57205;51.438;-2.006;2022-09-03T18:25:44;7.13;;;1.80;;
66667;SDS011;57205;51.438;-2.006;2022-09-03T18:28:41;4.88;;;1.35;;
66667;SDS011;57205;51.438;-2.006;2022-09-03T18:31:31;5.47;;;1.27;;
66667;SDS011;57205;51.438;-2.006;2022-09-03T18:37:02;5.22;;;1.50;;
66667;SDS011;57205;51.438;-2.006;2022-09-03T18:39:46;8.52;;;1.60;;
66667;SDS011;57205;51.438;-2.006;2022-09-03T18:45:47;3.13;;;1.38;;
66667;SDS011;57205;51.438;-2.006;2022-09-03T18:48:38;4.38;;;1.60;;
66667;SDS011;57205;51.438;-2.006;2022-09-03T18:51:42;5.07;;;1.77;;
66667;SDS011;57205;51.438;-2.006;2022-09-03T19:01:09;5.00;;;1.70;;
66667;SDS011;57205;51.438;-2.006;2022-09-03T19:07:07;7.70;;;2.10;;
66667;SDS011;57205;51.438;-2.006;2022-09-03T19:21:47;5.70;;;1.75;;
66667;SDS011;57205;51.438;-2.006;2022-09-03T19:24:35;5.13;;;1.98;;
66667;SDS011;57205;51.438;-2.006;2022-09-03T19:30:32;4.63;;;1.90;;
66667;SDS011;57205;51.438;-2.006;2022-09-03T19:48:23;4.10;;;1.85;;
66667;SDS011;57205;51.438;-2.006;2022-09-03T19:51:16;7.65;;;1.85;;
66667;SDS011;57205;51.438;-2.006;2022-09-03T19:54:04;4.03;;;2.00;;
66667;SDS011;57205;51.438;-2.006;2022-09-03T19:56:50;5.50;;;1.95;;
66667;SDS011;57205;51.438;-2.006;2022-09-03T19:59:38;5.25;;;2.15;;
66667;SDS011;57205;51.438;-2.006;2022-09-03T20:02:23;5.22;;;1.90;;
66667;SDS011;57205;51.438;-2.006;2022-09-03T20:05:12;6.43;;;1.88;;
66667;SDS011;57205;51.438;-2.006;2022-09-03T20:08:00;5.35;;;2.20;;
66667;SDS011;57205;51.438;-2.006;2022-09-03T20:10:46;6.38;;;1.95;;
66667;SDS011;57205;51.438;-2.006;2022-09-03T20:13:17;5.50;;;2.22;;
66667;SDS011;57205;51.438;-2.006;2022-09-03T20:21:07;7.57;;;2.05;;
66667;SDS011;57205;51.438;-2.006;2022-09-03T20:31:51;7.32;;;2.30;;
66667;SDS011;57205;51.438;-2.006;2022-09-03T20:56:51;5.20;;;2.22;;
66667;SDS011;57205;51.438;-2.006;2022-09-03T21:02:29;6.25;;;2.88;;
66667;SDS011;57205;51.438;-2.006;2022-09-03T21:18:22;8.10;;;2.88;;
66667;SDS011;57205;51.438;-2.006;2022-09-03T21:26:57;7.00;;;3.38;;
66667;SDS011;57205;51.438;-2.006;2022-09-03T21:29:28;7.55;;;2.92;;
66667;SDS011;57205;51.438;-2.006;2022-09-03T21:32:07;6.50;;;2.80;;
66667;SDS011;57205;51.438;-2.006;2022-09-03T21:37:22;5.30;;;3.42;;
66667;SDS011;57205;51.438;-2.006;2022-09-03T21:42:26;6.60;;;2.95;;
66667;SDS011;57205;51.438;-2.006;2022-09-03T21:47:47;7.22;;;2.88;;
66667;SDS011;57205;51.438;-2.006;2022-09-03T21:50:21;8.52;;;3.28;;
66667;SDS011;57205;51.438;-2.006;2022-09-03T22:01:21;9.40;;;3.72;;
66667;SDS011;57205;51.438;-2.006;2022-09-03T22:03:54;8.50;;;3.70;;
66667;SDS011;57205;51.438;-2.006;2022-09-03T22:06:21;12.48;;;4.07;;
66667;SDS011;57205;51.438;-2.006;2022-09-03T22:14:20;7.45;;;3.20;;
66667;SDS011;57205;51.438;-2.006;2022-09-03T22:19:26;5.35;;;3.28;;